Terminal Aerodrome Forecast
Issued by NWS Hastings, NE

Home | Current Version | Previous Version | Text Only | Print | Product List | Glossary On
Versions: 1 2 3 4 5 6 7 8 9 10 11 12 13 14 15
000
FTUS43 KGID 200551 AAA
TAFGRI
TAF AMD
KGRI 200551Z 2006/2106 16011KT P6SM VCTS BKN080CB WS010/20040KT
     FM200900 16007KT P6SM VCTS SCT090CB WS010/22035KT
     FM201000 17007KT P6SM SCT130 WS010/23035KT
     FM201400 VRB05KT P6SM FEW250
     FM210400 VRB05KT P6SM BKN080 WS006/19040KT
     FM210500 VRB05KT P6SM BKN120 WS015/21020KT=

USA.gov is the U.S. government's official web portal to all federal, state and local government web resources and services.